Time;durP1;ratioP1;P1;durP2;ratioP2;P2;SDS_P1;SDS_P2;PMS_P1;PMS_P2;Temp;Humidity;BMP_temperature;BMP_pressure;BME280_temperature;BME280_humidity;BME280_pressure;Samples;Min_cycle;Max_cycle;Signal;HPM_P1;HPM_P2
2023/01/09 00:01:53;;;;;;;;;;;;;;;18.29;40.60;101343.33;104738;1297;60371;-83
2023/01/09 00:04:24;;;;;;;;;;;;;;;18.30;40.60;101351.33;104723;1297;71631;-82
2023/01/09 00:06:55;;;;;;;;;;;;;;;18.30;40.60;101352.02;105093;1292;73595;-82
2023/01/09 00:09:33;;;;;;;;;;;;;;;18.30;40.47;101353.09;105047;1292;60602;-83
2023/01/09 00:11:58;;;;;;;;;;;;;;;18.31;40.57;101351.46;105189;1293;60894;-82
2023/01/09 00:14:30;;;;;;;;;;;;;;;18.31;40.48;101347.33;105116;1293;73601;-82
2023/01/09 00:16:56;;;;;;;;;;;;;;;18.32;40.44;101347.98;105086;1293;74517;-83
2023/01/09 00:19:21;;;;;;;;;;;;;;;18.32;40.41;101349.28;105201;1292;60497;-83
2023/01/09 00:21:48;;;;;;;;;;;;;;;18.32;40.51;101353.88;105128;1292;60510;-83
2023/01/09 00:24:18;;;;;;;;;;;;;;;18.32;40.51;101354.60;105113;1293;60595;-82
2023/01/09 00:26:50;;;;;;;;;;;;;;;18.33;40.49;101352.61;105439;1285;73515;-82
2023/01/09 00:29:15;;;;;;;;;;;;;;;18.33;40.39;101357.95;105935;1285;59666;-83
2023/01/09 00:31:51;;;;;;;;;;;;;;;18.34;40.35;101356.83;105898;1285;60543;-82
2023/01/09 00:34:17;;;;;;;;;;;;;;;18.34;40.55;101355.02;105998;1285;72524;-82
2023/01/09 00:36:48;;;;;;;;;;;;;;;18.34;40.42;101347.17;105975;1284;73713;-83
2023/01/09 00:39:16;;;;;;;;;;;;;;;18.34;40.44;101344.34;105967;1285;60593;-83
2023/01/09 00:41:43;;;;;;;;;;;;;;;18.34;40.50;101342.89;105991;1284;60575;-83
2023/01/09 00:44:12;;;;;;;;;;;;;;;18.35;40.40;101345.55;105895;1285;72992;-83
2023/01/09 00:46:50;;;;;;;;;;;;;;;18.35;40.41;101342.87;105898;1289;73697;-83
2023/01/09 00:49:19;;;;;;;;;;;;;;;18.36;40.32;101342.12;105917;1285;60963;-83
2023/01/09 00:51:47;;;;;;;;;;;;;;;18.36;40.44;101336.39;105541;1290;60686;-82
2023/01/09 00:54:17;;;;;;;;;;;;;;;18.36;40.37;101333.19;105914;1285;73532;-82
2023/01/09 00:56:43;;;;;;;;;;;;;;;18.37;40.29;101324.93;105907;1285;73764;-82
2023/01/09 00:59:09;;;;;;;;;;;;;;;18.37;40.37;101325.48;105930;1285;60456;-82
2023/01/09 01:01:34;;;;;;;;;;;;;;;18.37;40.41;101326.54;105963;1285;60492;-84
2023/01/09 01:07:37;;;;;;;;;;;;;;;18.37;40.43;101326.17;105747;1285;60603;-83
2023/01/09 01:09:39;;;;;;;;;;;;;;;18.38;40.37;101318.46;105932;1284;60473;-83
2023/01/09 01:12:05;;;;;;;;;;;;;;;18.39;40.19;101310.08;105663;1287;60631;-83
2023/01/09 01:14:41;;;;;;;;;;;;;;;18.39;40.36;101304.52;105543;1288;73432;-83
2023/01/09 01:17:20;;;;;;;;;;;;;;;18.39;40.29;101303.08;105493;1288;74628;-83
2023/01/09 01:19:46;;;;;;;;;;;;;;;18.39;40.37;101306.30;105677;1287;60372;-83
2023/01/09 01:22:11;;;;;;;;;;;;;;;18.40;40.39;101298.78;105557;1288;60621;-83
2023/01/09 01:24:42;;;;;;;;;;;;;;;18.40;40.32;101294.14;105534;1288;73644;-83
2023/01/09 01:27:10;;;;;;;;;;;;;;;18.40;40.32;101286.45;105493;1288;73844;-83
2023/01/09 01:29:36;;;;;;;;;;;;;;;18.41;40.27;101284.09;105545;1288;61023;-83
2023/01/09 01:32:08;;;;;;;;;;;;;;;18.42;40.27;101282.47;105603;1288;60473;-83
2023/01/09 01:34:38;;;;;;;;;;;;;;;18.42;40.26;101274.95;105602;1287;73313;-83
2023/01/09 01:37:10;;;;;;;;;;;;;;;18.42;40.26;101277.98;105532;1287;74504;-83
2023/01/09 01:39:35;;;;;;;;;;;;;;;18.43;40.17;101277.95;105527;1288;60233;-83
2023/01/09 01:42:04;;;;;;;;;;;;;;;18.42;40.16;101273.31;105555;1288;60590;-83
2023/01/09 01:44:48;;;;;;;;;;;;;;;18.43;40.19;101269.20;105578;1289;72992;-83
2023/01/09 01:47:16;;;;;;;;;;;;;;;18.44;40.27;101267.02;105526;1289;73664;-83
2023/01/09 01:49:42;;;;;;;;;;;;;;;18.44;40.26;101258.10;105473;1289;60662;-83
2023/01/09 01:52:07;;;;;;;;;;;;;;;18.44;40.25;101258.98;105469;1290;59450;-83
2023/01/09 01:54:33;;;;;;;;;;;;;;;18.45;40.26;101249.34;105507;1290;60476;-83
2023/01/09 01:57:02;;;;;;;;;;;;;;;18.45;40.17;101249.30;105461;1291;60762;-83
2023/01/09 01:59:30;;;;;;;;;;;;;;;18.45;40.30;101250.03;105510;1289;59319;-83
2023/01/09 02:01:59;;;;;;;;;;;;;;;18.46;40.38;101243.75;105467;1290;60474;-83
2023/01/09 02:04:28;;;;;;;;;;;;;;;18.46;40.16;101246.23;105482;1290;73432;-83
2023/01/09 02:06:54;;;;;;;;;;;;;;;18.46;40.16;101241.23;105455;1289;74624;-83
2023/01/09 02:09:21;;;;;;;;;;;;;;;18.47;40.08;101238.36;105441;1289;60593;-83
2023/01/09 02:11:51;;;;;;;;;;;;;;;18.47;40.22;101228.53;105470;1290;60386;-83
2023/01/09 02:14:16;;;;;;;;;;;;;;;18.47;40.15;101223.36;105416;1290;72549;-83
2023/01/09 02:17:06;;;;;;;;;;;;;;;18.48;40.23;101222.78;105820;1285;73677;-83
2023/01/09 02:19:58;;;;;;;;;;;;;;;18.48;40.16;101219.03;105906;1284;60370;-83
2023/01/09 02:22:38;;;;;;;;;;;;;;;18.49;40.06;101214.34;105691;1288;60355;-83
2023/01/09 02:25:22;;;;;;;;;;;;;;;18.50;40.09;101211.11;105639;1288;72260;-84
2023/01/09 02:28:09;;;;;;;;;;;;;;;18.50;40.07;101211.81;105498;1288;73739;-83
2023/01/09 02:31:03;;;;;;;;;;;;;;;18.50;40.03;101214.27;105693;1288;60377;-83
2023/01/09 02:33:58;;;;;;;;;;;;;;;18.51;40.01;101208.92;105369;1287;61105;-83
2023/01/09 02:36:31;;;;;;;;;;;;;;;18.51;40.06;101206.92;105054;1293;72351;-83
2023/01/09 02:39:15;;;;;;;;;;;;;;;18.51;40.10;101206.38;104960;1294;74004;-83
2023/01/09 02:41:59;;;;;;;;;;;;;;;18.52;40.07;101205.48;105081;1293;61193;-82
2023/01/09 02:44:32;;;;;;;;;;;;;;;18.52;40.13;101205.11;105085;1293;60408;-83
2023/01/09 02:47:05;;;;;;;;;;;;;;;18.53;39.98;101208.43;105041;1293;72519;-83
2023/01/09 02:49:32;;;;;;;;;;;;;;;18.53;40.11;101205.77;105004;1293;73727;-83
2023/01/09 02:52:23;;;;;;;;;;;;;;;18.53;40.01;101201.30;105058;1293;60449;-83
2023/01/09 02:55:16;;;;;;;;;;;;;;;18.54;40.08;101199.48;104868;1294;60393;-84
2023/01/09 02:57:54;;;;;;;;;;;;;;;18.54;40.20;101204.98;105124;1293;73457;-83
2023/01/09 03:00:25;;;;;;;;;;;;;;;18.55;39.92;101200.13;105059;1293;74591;-83
2023/01/09 03:02:53;;;;;;;;;;;;;;;18.55;40.02;101206.17;105114;1293;61110;-83
2023/01/09 03:05:51;;;;;;;;;;;;;;;18.55;40.05;101207.59;105105;1293;60108;-83
2023/01/09 03:08:19;;;;;;;;;;;;;;;18.55;39.97;101209.36;104676;1299;73712;-83
2023/01/09 03:10:57;;;;;;;;;;;;;;;18.56;40.06;101211.66;104681;1300;73545;-83
2023/01/09 03:13:23;;;;;;;;;;;;;;;18.56;40.04;101210.41;105002;1292;60630;-83
2023/01/09 03:15:50;;;;;;;;;;;;;;;18.56;39.91;101208.77;105127;1293;60515;-83
2023/01/09 03:18:18;;;;;;;;;;;;;;;18.57;39.95;101208.55;105312;1292;73488;-83
2023/01/09 03:20:55;;;;;;;;;;;;;;;18.58;39.84;101211.02;105200;1293;72637;-83
2023/01/09 03:23:24;;;;;;;;;;;;;;;18.58;39.81;101209.02;105200;1294;59799;-83
2023/01/09 03:25:50;;;;;;;;;;;;;;;18.58;39.73;101210.64;105054;1294;60458;-83
2023/01/09 03:28:24;;;;;;;;;;;;;;;18.59;39.82;101207.05;105127;1292;59369;-83
2023/01/09 03:30:52;;;;;;;;;;;;;;;18.59;39.78;101205.06;105298;1293;74642;-83
2023/01/09 03:33:17;;;;;;;;;;;;;;;18.59;39.93;101203.64;105334;1292;60381;-83
2023/01/09 03:35:51;;;;;;;;;;;;;;;18.60;39.87;101200.03;105222;1292;60416;-83
2023/01/09 03:38:17;;;;;;;;;;;;;;;18.59;39.89;101196.49;105302;1291;73351;-83
2023/01/09 03:40:42;;;;;;;;;;;;;;;18.61;39.69;101196.80;105111;1294;60569;-82
2023/01/09 03:43:12;;;;;;;;;;;;;;;18.61;39.70;101200.02;105243;1293;60735;-82
2023/01/09 03:45:37;;;;;;;;;;;;;;;18.60;39.70;101205.73;105694;1285;60609;-82
2023/01/09 03:48:05;;;;;;;;;;;;;;;18.61;39.62;101211.58;105713;1284;60529;-83
2023/01/09 03:50:34;;;;;;;;;;;;;;;18.61;39.74;101207.64;105646;1285;73526;-83
2023/01/09 03:53:09;;;;;;;;;;;;;;;18.62;39.66;101208.67;105714;1285;60941;-83
2023/01/09 03:55:34;;;;;;;;;;;;;;;18.62;39.77;101217.20;105662;1287;60356;-83
2023/01/09 03:58:03;;;;;;;;;;;;;;;18.62;39.73;101220.25;105681;1284;73623;-83
2023/01/09 04:00:31;;;;;;;;;;;;;;;18.63;39.64;101223.23;105739;1285;73929;-83
2023/01/09 04:02:57;;;;;;;;;;;;;;;18.63;39.68;101222.87;105721;1286;60540;-83
2023/01/09 04:05:23;;;;;;;;;;;;;;;18.63;39.67;101219.29;105755;1285;60497;-83
2023/01/09 04:07:52;;;;;;;;;;;;;;;18.63;39.62;101218.21;105767;1284;73587;-83
2023/01/09 04:10:18;;;;;;;;;;;;;;;18.64;39.73;101220.52;105780;1284;60512;-83
2023/01/09 04:12:47;;;;;;;;;;;;;;;18.64;39.67;101224.59;105922;1286;60564;-84
2023/01/09 04:15:12;;;;;;;;;;;;;;;18.65;39.77;101224.40;105669;1286;60455;-83
2023/01/09 04:17:38;;;;;;;;;;;;;;;18.65;39.62;101229.54;105747;1285;60486;-83
2023/01/09 04:20:04;;;;;;;;;;;;;;;18.66;39.69;101231.27;105725;1285;61256;-83
2023/01/09 04:22:30;;;;;;;;;;;;;;;18.66;39.52;101232.88;105540;1289;60462;-83
2023/01/09 04:24:55;;;;;;;;;;;;;;;18.66;39.60;101236.27;105449;1288;60497;-83
2023/01/09 04:27:21;;;;;;;;;;;;;;;18.66;39.60;101238.56;105485;1289;60480;-83
2023/01/09 04:29:47;;;;;;;;;;;;;;;18.66;39.67;101234.46;105512;1290;60646;-83
2023/01/09 04:32:15;;;;;;;;;;;;;;;18.66;39.53;101237.31;105466;1289;73808;-83
2023/01/09 04:34:41;;;;;;;;;;;;;;;18.67;39.62;101239.06;105620;1289;60593;-83
2023/01/09 04:37:07;;;;;;;;;;;;;;;18.67;39.38;101239.77;105496;1287;60496;-83
2023/01/09 04:39:32;;;;;;;;;;;;;;;18.67;39.62;101242.80;105409;1291;60487;-83
2023/01/09 04:41:58;;;;;;;;;;;;;;;18.67;39.46;101242.80;105467;1288;60549;-83
2023/01/09 04:44:26;;;;;;;;;;;;;;;18.67;39.25;101245.45;105617;1293;60554;-83
2023/01/09 04:46:52;;;;;;;;;;;;;;;18.68;39.31;101245.94;105677;1288;59910;-83
2023/01/09 04:49:21;;;;;;;;;;;;;;;18.68;39.03;101246.10;105655;1288;60477;-83
2023/01/09 04:52:03;;;;;;;;;;;;;;;18.69;38.97;101246.65;105656;1288;72333;-83
2023/01/09 04:54:28;;;;;;;;;;;;;;;18.68;38.97;101245.07;105880;1285;73688;-83
2023/01/09 04:56:54;;;;;;;;;;;;;;;18.68;38.90;101248.45;105968;1284;60426;-83
2023/01/09 04:59:20;;;;;;;;;;;;;;;18.69;38.75;101249.33;105755;1290;60451;-83
2023/01/09 05:01:54;;;;;;;;;;;;;;;18.68;38.71;101248.48;105705;1285;72343;-83
2023/01/09 05:04:20;;;;;;;;;;;;;;;18.67;38.58;101244.77;105713;1284;74577;-83
2023/01/09 05:06:49;;;;;;;;;;;;;;;18.65;38.43;101242.88;105749;1284;60333;-83
2023/01/09 05:09:14;;;;;;;;;;;;;;;18.64;38.38;101240.65;105745;1284;60533;-83
2023/01/09 05:11:45;;;;;;;;;;;;;;;18.62;38.34;101240.22;105930;1284;60471;-83
2023/01/09 05:14:11;;;;;;;;;;;;;;;18.61;38.16;101237.77;105725;1285;74490;-83
2023/01/09 05:16:37;;;;;;;;;;;;;;;18.59;38.12;101233.75;105706;1285;60375;-83
2023/01/09 05:19:05;;;;;;;;;;;;;;;18.58;38.06;101227.08;105712;1284;60523;-83
2023/01/09 05:21:33;;;;;;;;;;;;;;;18.55;37.96;101227.71;105705;1284;72516;-83
2023/01/09 05:23:59;;;;;;;;;;;;;;;18.52;37.95;101224.71;105709;1287;73677;-83
2023/01/09 05:26:48;;;;;;;;;;;;;;;18.48;37.75;101225.09;105741;1285;60482;-83
2023/01/09 05:29:13;;;;;;;;;;;;;;;18.43;37.77;101221.07;105421;1291;60304;-83
2023/01/09 05:31:41;;;;;;;;;;;;;;;18.39;37.74;101218.08;105247;1291;60644;-82
2023/01/09 05:34:07;;;;;;;;;;;;;;;18.36;37.77;101213.99;105285;1291;74654;-82
2023/01/09 05:36:32;;;;;;;;;;;;;;;18.33;37.61;101214.11;105405;1291;60500;-83
2023/01/09 05:38:59;;;;;;;;;;;;;;;18.31;37.79;101209.45;105269;1290;60569;-83
2023/01/09 05:41:25;;;;;;;;;;;;;;;18.26;37.75;101206.65;105271;1293;60199;-83
2023/01/09 05:43:50;;;;;;;;;;;;;;;18.21;37.52;101201.91;105243;1296;59460;-83
2023/01/09 05:46:16;;;;;;;;;;;;;;;18.16;37.61;101198.45;105449;1291;60565;-84
2023/01/09 05:48:43;;;;;;;;;;;;;;;18.11;37.65;101194.25;105348;1291;60509;-82
2023/01/09 05:51:10;;;;;;;;;;;;;;;18.06;37.57;101201.83;105449;1291;59940;-83
2023/01/09 05:53:36;;;;;;;;;;;;;;;18.00;37.51;101197.33;105318;1291;73481;-83
2023/01/09 05:56:02;;;;;;;;;;;;;;;17.94;37.40;101197.80;105429;1291;73488;-82
2023/01/09 05:58:28;;;;;;;;;;;;;;;17.88;37.47;101190.94;105591;1290;59494;-84
2023/01/09 06:00:53;;;;;;;;;;;;;;;17.85;37.36;101194.52;105445;1291;59651;-84
2023/01/09 06:03:19;;;;;;;;;;;;;;;17.82;37.48;101194.83;105308;1291;61566;-84
2023/01/09 06:05:45;;;;;;;;;;;;;;;17.79;37.53;101194.25;105451;1294;61801;-84
2023/01/09 06:08:10;;;;;;;;;;;;;;;17.77;37.50;101191.18;105895;1285;74558;-85
2023/01/09 06:10:37;;;;;;;;;;;;;;;17.74;37.56;101196.65;105976;1285;60429;-84
2023/01/09 06:13:02;;;;;;;;;;;;;;;17.72;37.56;101202.79;105969;1285;60515;-84
2023/01/09 06:15:28;;;;;;;;;;;;;;;17.71;37.51;101200.88;105944;1285;60556;-83
2023/01/09 06:17:53;;;;;;;;;;;;;;;17.71;37.52;101204.65;106045;1285;58574;-83
2023/01/09 06:20:19;;;;;;;;;;;;;;;17.73;37.55;101196.33;106001;1284;59241;-83
2023/01/09 06:22:44;;;;;;;;;;;;;;;17.78;37.47;101195.39;105916;1285;60752;-85
2023/01/09 06:25:10;;;;;;;;;;;;;;;17.83;37.41;101191.75;105931;1283;60452;-84
2023/01/09 06:27:36;;;;;;;;;;;;;;;17.89;37.42;101191.80;105905;1285;59224;-84
2023/01/09 06:30:01;;;;;;;;;;;;;;;17.95;37.52;101196.70;106000;1284;60424;-84
2023/01/09 06:32:27;;;;;;;;;;;;;;;18.00;37.42;101197.48;105958;1285;59341;-84
2023/01/09 06:34:53;;;;;;;;;;;;;;;18.06;37.39;101202.71;105843;1285;60545;-84
2023/01/09 06:37:18;;;;;;;;;;;;;;;18.10;37.30;101206.08;105932;1285;60481;-84
2023/01/09 06:39:43;;;;;;;;;;;;;;;18.15;37.36;101205.45;106027;1285;59360;-85
2023/01/09 06:42:09;;;;;;;;;;;;;;;18.19;37.42;101202.77;105754;1285;60561;-84
2023/01/09 06:44:36;;;;;;;;;;;;;;;18.19;37.41;101202.42;106013;1285;59295;-85
2023/01/09 06:47:02;;;;;;;;;;;;;;;18.16;37.25;101207.89;105942;1283;59133;-84
2023/01/09 06:49:27;;;;;;;;;;;;;;;18.13;37.38;101203.42;106058;1285;60498;-84
2023/01/09 06:51:53;;;;;;;;;;;;;;;18.09;37.35;101203.27;105950;1288;59292;-85
2023/01/09 06:54:20;;;;;;;;;;;;;;;18.06;37.23;101207.86;105955;1286;61569;-83
2023/01/09 06:56:45;;;;;;;;;;;;;;;18.04;37.39;101208.51;106126;1285;60363;-85
2023/01/09 06:59:11;;;;;;;;;;;;;;;18.02;37.61;101206.11;106124;1285;60575;-83
2023/01/09 07:01:38;;;;;;;;;;;;;;;17.99;37.78;101203.98;105912;1285;60421;-83
2023/01/09 07:04:04;;;;;;;;;;;;;;;17.99;37.89;101201.67;105908;1284;60537;-83
2023/01/09 07:06:30;;;;;;;;;;;;;;;18.00;37.83;101199.30;105951;1285;60365;-83
2023/01/09 07:08:56;;;;;;;;;;;;;;;18.00;37.81;101196.61;105943;1285;60504;-82
2023/01/09 07:11:22;;;;;;;;;;;;;;;18.02;37.89;101193.15;105970;1285;59161;-83
2023/01/09 07:13:47;;;;;;;;;;;;;;;18.04;37.81;101191.39;106017;1285;60496;-83
2023/01/09 07:16:13;;;;;;;;;;;;;;;18.08;37.83;101185.65;106099;1284;60569;-83
2023/01/09 07:18:38;;;;;;;;;;;;;;;18.13;37.92;101182.41;105988;1285;60520;-82
2023/01/09 07:21:04;;;;;;;;;;;;;;;18.16;37.85;101180.61;105807;1285;60473;-83
2023/01/09 07:23:30;;;;;;;;;;;;;;;18.20;37.84;101182.57;106008;1283;60355;-83
2023/01/09 07:25:57;;;;;;;;;;;;;;;18.23;37.73;101185.21;106000;1285;59986;-83
2023/01/09 07:28:22;;;;;;;;;;;;;;;18.25;37.70;101185.84;106043;1285;60589;-83
2023/01/09 07:30:48;;;;;;;;;;;;;;;18.27;37.63;101189.48;105933;1285;61240;-82
2023/01/09 07:33:15;;;;;;;;;;;;;;;18.29;37.64;101190.64;106066;1285;60396;-82
2023/01/09 07:35:41;;;;;;;;;;;;;;;18.30;37.64;101188.25;106041;1285;73410;-82
2023/01/09 07:38:06;;;;;;;;;;;;;;;18.33;37.55;101186.70;106032;1285;60416;-82
2023/01/09 07:40:32;;;;;;;;;;;;;;;18.34;37.57;101188.96;105987;1285;60494;-82
2023/01/09 07:42:57;;;;;;;;;;;;;;;18.35;37.42;101193.70;105936;1283;60554;-83
2023/01/09 07:45:23;;;;;;;;;;;;;;;18.37;37.17;101193.98;105916;1288;60442;-83
2023/01/09 07:47:48;;;;;;;;;;;;;;;18.38;37.29;101196.41;105924;1285;73400;-83
2023/01/09 07:50:14;;;;;;;;;;;;;;;18.39;37.29;101196.15;105889;1285;59092;-81
2023/01/09 07:52:39;;;;;;;;;;;;;;;18.40;37.07;101193.07;105990;1285;60412;-82
2023/01/09 07:55:05;;;;;;;;;;;;;;;18.41;37.20;101186.95;105988;1285;60523;-82
2023/01/09 07:57:30;;;;;;;;;;;;;;;18.42;37.26;101181.75;105976;1290;59349;-83
2023/01/09 07:59:59;;;;;;;;;;;;;;;18.41;37.04;101180.54;105791;1285;72681;-84
2023/01/09 08:02:33;;;;;;;;;;;;;;;18.31;37.14;101175.02;105944;1284;74578;-83
2023/01/09 08:04:59;;;;;;;;;;;;;;;18.24;37.40;101175.20;105922;1285;60572;-83
2023/01/09 08:07:26;;;;;;;;;;;;;;;18.23;37.26;101173.29;106014;1285;60647;-82
2023/01/09 08:09:51;;;;;;;;;;;;;;;18.26;37.47;101169.92;105916;1285;59476;-83
2023/01/09 08:12:17;;;;;;;;;;;;;;;18.29;37.52;101168.91;105959;1286;60078;-83
2023/01/09 08:14:43;;;;;;;;;;;;;;;18.32;37.50;101169.81;106012;1285;61478;-82
2023/01/09 08:17:10;;;;;;;;;;;;;;;18.33;37.50;101171.20;105765;1285;60475;-82
2023/01/09 08:19:36;;;;;;;;;;;;;;;18.34;37.53;101169.73;105920;1285;59242;-82
2023/01/09 08:22:02;;;;;;;;;;;;;;;18.35;37.58;101168.02;105855;1290;60557;-83
2023/01/09 08:24:29;;;;;;;;;;;;;;;18.38;37.73;101173.07;105946;1285;59255;-82
2023/01/09 08:26:54;;;;;;;;;;;;;;;18.41;37.73;101179.70;105921;1285;60694;-83
2023/01/09 08:29:20;;;;;;;;;;;;;;;18.43;37.62;101174.55;105275;1286;877027;-83
2023/01/09 08:31:45;;;;;;;;;;;;;;;18.45;37.77;101166.80;105819;1285;60474;-83
2023/01/09 08:34:11;;;;;;;;;;;;;;;18.47;37.64;101165.45;105886;1286;59215;-83
2023/01/09 08:36:36;;;;;;;;;;;;;;;18.48;37.62;101161.80;106037;1289;60489;-83
2023/01/09 08:39:02;;;;;;;;;;;;;;;18.50;37.57;101162.09;105913;1285;61348;-83
2023/01/09 08:47:05;;;;;;;;;;;;;;;18.54;37.72;101155.98;106012;1285;74540;-83
2023/01/09 08:49:31;;;;;;;;;;;;;;;18.55;37.77;101153.39;106050;1285;60455;-83
2023/01/09 08:51:56;;;;;;;;;;;;;;;18.57;37.75;101144.42;105962;1285;59195;-83
2023/01/09 08:54:22;;;;;;;;;;;;;;;18.58;37.84;101136.86;106047;1284;60473;-84
2023/01/09 08:56:47;;;;;;;;;;;;;;;18.58;37.87;101138.25;105962;1285;60603;-83
2023/01/09 08:59:14;;;;;;;;;;;;;;;18.59;37.91;101141.42;106066;1287;60471;-84
2023/01/09 09:01:39;;;;;;;;;;;;;;;18.59;37.81;101143.73;105926;1290;60314;-83
2023/01/09 09:04:05;;;;;;;;;;;;;;;18.59;37.99;101138.02;105949;1285;60482;-83
2023/01/09 09:06:31;;;;;;;;;;;;;;;18.59;37.92;101132.67;105872;1288;59919;-84
2023/01/09 09:09:01;;;;;;;;;;;;;;;18.51;37.92;101126.54;105820;1285;60582;-83
2023/01/09 09:11:27;;;;;;;;;;;;;;;18.42;37.89;101121.89;105997;1285;59980;-83
2023/01/09 09:13:52;;;;;;;;;;;;;;;18.34;37.94;101117.67;105915;1285;58406;-85
2023/01/09 09:16:18;;;;;;;;;;;;;;;18.30;38.02;101113.98;105738;1286;58706;-83
2023/01/09 09:18:43;;;;;;;;;;;;;;;18.28;38.10;101116.22;105922;1285;60455;-83
2023/01/09 09:21:10;;;;;;;;;;;;;;;18.29;38.24;101111.20;106013;1285;60354;-83
2023/01/09 09:23:36;;;;;;;;;;;;;;;18.30;38.11;101105.77;106281;1283;60731;-83
2023/01/09 09:26:02;;;;;;;;;;;;;;;18.33;38.17;101102.59;105957;1285;59390;-83
2023/01/09 09:28:27;;;;;;;;;;;;;;;18.36;38.10;101102.76;106023;1284;60286;-83
2023/01/09 09:30:55;;;;;;;;;;;;;;;18.39;38.12;101099.77;105997;1285;58677;-84
2023/01/09 09:33:20;;;;;;;;;;;;;;;18.41;38.08;101100.19;105990;1285;59351;-83
2023/01/09 09:35:46;;;;;;;;;;;;;;;18.40;38.23;101101.30;106026;1285;59067;-84
2023/01/09 09:38:12;;;;;;;;;;;;;;;18.38;37.99;101102.48;105893;1285;60507;-85
2023/01/09 09:40:37;;;;;;;;;;;;;;;18.35;38.13;101098.17;105861;1286;60462;-85
2023/01/09 09:45:57;;;;;;;;;;;;;;;18.31;37.94;101095.92;106085;1283;60579;-83
2023/01/09 09:48:23;;;;;;;;;;;;;;;18.29;37.75;101092.44;105967;1285;60271;-83
2023/01/09 09:51:06;;;;;;;;;;;;;;;18.29;37.97;101089.79;106019;1285;60544;-83
2023/01/09 09:53:58;;;;;;;;;;;;;;;18.31;37.89;101089.67;105994;1284;73905;-83
2023/01/09 09:56:24;;;;;;;;;;;;;;;18.33;37.73;101086.73;105976;1285;59862;-84
2023/01/09 09:58:55;;;;;;;;;;;;;;;18.32;37.70;101088.58;105935;1285;60432;-83
2023/01/09 10:01:25;;;;;;;;;;;;;;;18.29;37.70;101090.52;105866;1285;73596;-84
2023/01/09 10:03:51;;;;;;;;;;;;;;;18.22;37.84;101091.38;105924;1285;74447;-84
2023/01/09 10:06:29;;;;;;;;;;;;;;;18.15;37.81;101084.33;105884;1285;58746;-83
2023/01/09 10:09:13;;;;;;;;;;;;;;;18.10;37.97;101078.52;106002;1284;60631;-84
2023/01/09 10:11:42;;;;;;;;;;;;;;;18.06;38.05;101077.48;105864;1290;72499;-83
2023/01/09 10:14:09;;;;;;;;;;;;;;;18.04;37.98;101077.75;105993;1285;73885;-83
2023/01/09 10:16:41;;;;;;;;;;;;;;;18.03;37.90;101075.54;105913;1286;59899;-84
2023/01/09 10:19:33;;;;;;;;;;;;;;;18.01;37.95;101068.86;105952;1285;59774;-84
2023/01/09 10:22:21;;;;;;;;;;;;;;;17.98;37.99;101064.74;105444;1291;73339;-84
2023/01/09 10:25:06;;;;;;;;;;;;;;;17.97;38.05;101064.48;105284;1292;74584;-85
2023/01/09 10:27:31;;;;;;;;;;;;;;;17.98;38.27;101060.29;105452;1291;61174;-84
2023/01/09 10:30:15;;;;;;;;;;;;;;;18.01;38.38;101057.11;105382;1291;60552;-84
2023/01/09 10:32:47;;;;;;;;;;;;;;;18.02;38.24;101052.77;105449;1291;71978;-84
2023/01/09 10:35:12;;;;;;;;;;;;;;;18.03;38.27;101053.44;105495;1290;73583;-84
2023/01/09 10:37:39;;;;;;;;;;;;;;;18.04;38.21;101045.73;105462;1291;59410;-83
2023/01/09 10:40:06;;;;;;;;;;;;;;;18.02;38.24;101042.43;105382;1291;59475;-83
2023/01/09 10:42:43;;;;;;;;;;;;;;;18.01;38.18;101038.94;105318;1291;73269;-84
2023/01/09 10:45:16;;;;;;;;;;;;;;;18.00;38.16;101037.02;105311;1296;74617;-84
2023/01/09 10:47:42;;;;;;;;;;;;;;;17.97;38.07;101032.05;105357;1291;61693;-84
2023/01/09 10:50:21;;;;;;;;;;;;;;;17.93;37.97;101029.39;105461;1294;60465;-83
2023/01/09 10:52:50;;;;;;;;;;;;;;;17.90;37.93;101029.16;105406;1291;73496;-85
2023/01/09 10:55:18;;;;;;;;;;;;;;;17.89;38.07;101020.70;105344;1293;73585;-85
2023/01/09 10:57:47;;;;;;;;;;;;;;;17.90;38.19;101012.08;105287;1291;60328;-84
2023/01/09 11:00:14;;;;;;;;;;;;;;;17.93;38.06;101010.52;106147;1285;61250;-84
2023/01/09 11:02:41;;;;;;;;;;;;;;;17.93;38.02;101009.10;106037;1285;73463;-84
2023/01/09 11:05:10;;;;;;;;;;;;;;;17.88;38.08;101007.35;105779;1285;73604;-85
2023/01/09 11:07:36;;;;;;;;;;;;;;;17.86;37.94;101008.38;106493;1285;60684;-86
2023/01/09 11:10:03;;;;;;;;;;;;;;;17.82;38.14;101005.20;105730;1289;59624;-83
2023/01/09 11:12:30;;;;;;;;;;;;;;;17.80;38.24;101005.34;106047;1289;72565;-84
2023/01/09 11:15:06;;;;;;;;;;;;;;;17.80;38.49;101003.52;105977;1285;59116;-84
2023/01/09 11:17:32;;;;;;;;;;;;;;;17.81;38.51;100999.21;106046;1285;60428;-84
2023/01/09 11:20:01;;;;;;;;;;;;;;;17.83;38.51;100991.46;106019;1285;60230;-84
2023/01/09 11:22:27;;;;;;;;;;;;;;;17.84;38.52;100988.91;106165;1285;72472;-83
2023/01/09 11:25:02;;;;;;;;;;;;;;;17.83;38.51;100981.81;106203;1286;60425;-83
2023/01/09 11:27:27;;;;;;;;;;;;;;;17.82;38.61;100979.73;106076;1285;60988;-83
2023/01/09 11:30:19;;;;;;;;;;;;;;;17.82;38.63;100970.83;105852;1285;60542;-84
2023/01/09 11:32:45;;;;;;;;;;;;;;;17.87;38.66;100967.17;105962;1288;72574;-84
2023/01/09 11:35:37;;;;;;;;;;;;;;;17.92;38.65;100966.43;105858;1290;60271;-85
2023/01/09 11:38:07;;;;;;;;;;;;;;;17.92;38.58;100958.75;105968;1289;60005;-84
2023/01/09 11:40:43;;;;;;;;;;;;;;;17.91;38.65;100949.15;105846;1289;60336;-85
2023/01/09 11:43:13;;;;;;;;;;;;;;;17.93;38.60;100944.44;105956;1289;73478;-85
2023/01/09 11:45:44;;;;;;;;;;;;;;;17.93;38.54;100940.33;105947;1287;74689;-85
2023/01/09 11:48:17;;;;;;;;;;;;;;;17.93;38.54;100942.31;105858;1290;60534;-84
2023/01/09 11:50:47;;;;;;;;;;;;;;;17.92;38.48;100939.14;105942;1286;60224;-85
2023/01/09 11:53:16;;;;;;;;;;;;;;;17.93;38.39;100939.13;105850;1286;73652;-85
2023/01/09 11:55:42;;;;;;;;;;;;;;;17.90;38.44;100936.95;105910;1286;73913;-84
2023/01/09 11:58:15;;;;;;;;;;;;;;;17.88;38.52;100933.29;105935;1286;59264;-85
2023/01/09 12:00:44;;;;;;;;;;;;;;;17.88;38.46;100926.70;106089;1283;60624;-85
2023/01/09 12:03:12;;;;;;;;;;;;;;;17.84;38.44;100923.95;105875;1286;72668;-84
2023/01/09 12:05:59;;;;;;;;;;;;;;;17.80;38.43;100919.55;106026;1289;74891;-85
2023/01/09 12:08:24;;;;;;;;;;;;;;;17.65;38.55;100918.03;105984;1284;59891;-84
2023/01/09 12:10:59;;;;;;;;;;;;;;;17.47;38.70;100917.23;106126;1285;59406;-84
2023/01/09 12:13:27;;;;;;;;;;;;;;;17.42;38.71;100912.84;106098;1287;72556;-84
2023/01/09 12:15:56;;;;;;;;;;;;;;;17.35;38.73;100907.34;106163;1284;73512;-84
2023/01/09 12:18:34;;;;;;;;;;;;;;;17.31;38.91;100897.98;105992;1287;59961;-84
2023/01/09 12:21:19;;;;;;;;;;;;;;;17.34;38.94;100894.77;106015;1288;61241;-85
2023/01/09 12:23:47;;;;;;;;;;;;;;;17.37;39.02;100889.11;106032;1284;72234;-83
2023/01/09 12:26:17;;;;;;;;;;;;;;;17.38;38.94;100892.60;106018;1289;73469;-84
2023/01/09 12:29:01;;;;;;;;;;;;;;;17.38;38.93;100893.13;106016;1286;60436;-84
2023/01/09 12:31:36;;;;;;;;;;;;;;;17.43;38.89;100893.06;105985;1285;61074;-84
2023/01/09 12:34:15;;;;;;;;;;;;;;;17.50;38.87;100891.45;106023;1285;73459;-83
2023/01/09 12:37:00;;;;;;;;;;;;;;;17.56;38.88;100885.57;106029;1285;74938;-83
2023/01/09 12:39:47;;;;;;;;;;;;;;;17.65;38.91;100881.16;105912;1286;61360;-84
2023/01/09 12:42:36;;;;;;;;;;;;;;;17.70;38.78;100875.21;105985;1285;60031;-84
2023/01/09 12:45:31;;;;;;;;;;;;;;;17.73;38.89;100872.36;105371;1293;72564;-83
2023/01/09 12:47:59;;;;;;;;;;;;;;;17.72;38.83;100871.89;105215;1292;74533;-85
2023/01/09 12:50:57;;;;;;;;;;;;;;;17.68;38.87;100874.59;105291;1291;61591;-84